Time;durP1;ratioP1;P1;durP2;ratioP2;P2;SDS_P1;SDS_P2;PMS_P1;PMS_P2;Temp;Humidity;BMP_temperature;BMP_pressure;BME280_temperature;BME280_humidity;BME280_pressure;Samples;Min_cycle;Max_cycle;Signal;HPM_P1;HPM_P2
2024/01/11 00:06:56;;;;;;;4.30;3.75;;;;;;;15.50;38.23;103026.19;21017220;28;20500;-66
2024/01/11 00:16:58;;;;;;;4.63;3.97;;;;;;;15.38;38.15;103005.25;21014394;28;20724;-66
2024/01/11 00:27:00;;;;;;;4.30;3.83;;;;;;;15.48;37.76;103029.88;21014631;28;20127;-66
2024/01/11 00:37:02;;;;;;;4.00;3.60;;;;;;;15.44;37.86;103029.13;21013367;28;20485;-65
2024/01/11 00:47:04;;;;;;;4.43;3.70;;;;;;;15.44;37.81;103045.22;20985096;28;20491;-65
2024/01/11 00:57:05;;;;;;;4.53;4.03;;;;;;;15.41;37.61;103018.53;20986197;28;20052;-66
2024/01/11 01:07:07;;;;;;;5.30;4.30;;;;;;;15.36;37.71;103042.03;20968934;28;20083;-65
2024/01/11 01:17:09;;;;;;;5.13;4.60;;;;;;;15.33;37.41;103040.34;20983869;28;20048;-66
2024/01/11 01:27:12;;;;;;;4.93;4.40;;;;;;;15.30;37.37;103029.75;20970076;28;20129;-68
2024/01/11 01:37:14;;;;;;;4.93;4.20;;;;;;;15.32;37.63;103018.94;20994708;28;20059;-68
2024/01/11 01:47:17;;;;;;;4.40;4.00;;;;;;;15.28;37.46;103018.22;20969927;28;20148;-68
2024/01/11 01:57:20;;;;;;;5.20;4.10;;;;;;;15.29;37.18;103029.81;20993958;28;20048;-68
2024/01/11 02:07:22;;;;;;;4.78;4.30;;;;;;;15.28;36.93;103017.34;21037447;28;20412;-68
2024/01/11 02:17:23;;;;;;;4.85;4.35;;;;;;;15.26;36.86;103014.72;20999651;28;20048;-68
2024/01/11 02:27:25;;;;;;;5.15;4.65;;;;;;;15.27;37.03;103013.78;20996546;28;20650;-68
2024/01/11 02:37:27;;;;;;;4.78;4.25;;;;;;;15.26;36.89;103019.22;20984389;28;20089;-68
2024/01/11 02:47:29;;;;;;;5.03;4.53;;;;;;;15.26;36.72;103024.56;20908007;28;20048;-68
2024/01/11 02:57:31;;;;;;;4.80;4.28;;;;;;;15.20;36.17;103031.97;20912464;28;20432;-68
2024/01/11 03:07:33;;;;;;;4.45;4.05;;;;;;;15.22;36.68;103039.94;20928350;28;20048;-68
2024/01/11 03:17:34;;;;;;;5.40;4.78;;;;;;;15.20;36.37;103033.75;20928175;28;20060;-68
2024/01/11 03:27:36;;;;;;;5.00;4.50;;;;;;;15.20;36.25;103042.69;20932140;28;20051;-66
2024/01/11 03:37:38;;;;;;;5.00;4.50;;;;;;;15.17;36.73;103048.19;20920579;28;21910;-66
2024/01/11 03:47:42;;;;;;;4.85;4.15;;;;;;;15.21;36.13;103051.59;20918421;28;20428;-65
2024/01/11 03:57:44;;;;;;;4.80;4.30;;;;;;;15.18;36.28;103031.16;20926380;28;20048;-66
2024/01/11 04:07:46;;;;;;;5.65;5.05;;;;;;;15.19;36.11;103029.31;20953769;28;20052;-65
2024/01/11 04:17:47;;;;;;;6.00;5.40;;;;;;;15.22;36.15;103035.44;20949553;28;20412;-66
2024/01/11 04:27:49;;;;;;;5.30;4.78;;;;;;;15.24;36.00;102995.13;20942957;28;20044;-66
2024/01/11 04:37:51;;;;;;;5.22;4.70;;;;;;;15.26;36.11;103013.84;20922153;28;20060;-66
2024/01/11 04:47:53;;;;;;;5.47;4.93;;;;;;;15.27;35.97;103045.09;20947096;28;20515;-66
2024/01/11 04:57:55;;;;;;;5.40;4.70;;;;;;;15.28;35.55;103049.53;20927842;28;20068;-66
2024/01/11 05:07:57;;;;;;;5.88;4.97;;;;;;;15.21;35.83;103047.13;20941657;28;20044;-66
2024/01/11 05:17:59;;;;;;;6.15;5.43;;;;;;;15.34;35.85;103111.00;20941517;28;20115;-66
2024/01/11 05:28:02;;;;;;;5.93;5.20;;;;;;;15.38;35.71;103120.66;20918207;28;20056;-66
2024/01/11 05:38:04;;;;;;;5.18;4.65;;;;;;;15.39;35.78;103111.66;20950928;28;20080;-66
2024/01/11 05:48:06;;;;;;;5.80;5.20;;;;;;;15.41;35.94;103093.69;20950863;28;20095;-65
2024/01/11 05:58:08;;;;;;;5.45;4.75;;;;;;;15.46;35.74;103090.81;20939816;28;20048;-66
2024/01/11 06:08:10;;;;;;;5.43;4.65;;;;;;;15.51;36.09;103075.38;20963899;28;20048;-66
2024/01/11 06:18:11;;;;;;;5.15;4.20;;;;;;;15.58;35.86;103067.94;20942693;28;20060;-66
2024/01/11 06:28:13;;;;;;;5.40;4.75;;;;;;;15.68;36.17;103063.00;20930170;28;20053;-66
2024/01/11 06:38:15;;;;;;;5.00;4.35;;;;;;;15.79;36.17;103066.97;20958765;28;20127;-66
2024/01/11 06:48:17;;;;;;;4.28;3.88;;;;;;;15.92;35.97;103055.72;20925142;28;20121;-65
2024/01/11 06:58:22;;;;;;;5.75;4.72;;;;;;;16.23;36.51;103060.53;20900491;28;20048;-65
2024/01/11 07:08:24;;;;;;;5.67;4.53;;;;;;;16.41;38.55;103040.91;20903412;28;20059;-70
2024/01/11 07:18:26;;;;;;;4.68;4.20;;;;;;;16.74;38.85;103024.03;20938297;28;20049;-72
2024/01/11 07:28:28;;;;;;;4.60;4.20;;;;;;;17.04;38.16;103071.91;20946363;28;20068;-74
2024/01/11 07:38:30;;;;;;;4.78;4.13;;;;;;;17.19;37.56;103092.66;20959276;28;20048;-73
2024/01/11 07:48:32;;;;;;;4.45;3.90;;;;;;;17.29;37.25;103066.13;20957562;28;20044;-73
2024/01/11 07:58:37;;;;;;;4.22;3.80;;;;;;;17.37;37.00;103079.22;20956509;28;20048;-73
2024/01/11 08:08:39;;;;;;;4.38;3.95;;;;;;;17.44;36.82;103101.28;20953988;28;20492;-73
2024/01/11 08:18:41;;;;;;;3.95;3.55;;;;;;;17.39;36.58;103093.47;20949803;28;20060;-73
2024/01/11 08:28:43;;;;;;;5.95;4.13;;;;;;;17.47;36.52;103079.63;20948430;28;20064;-74
2024/01/11 08:38:45;;;;;;;4.60;3.95;;;;;;;17.52;36.42;103108.03;20937322;28;20615;-74
2024/01/11 08:48:47;;;;;;;4.88;4.38;;;;;;;17.51;36.52;103113.50;20994996;28;20515;-74
2024/01/11 08:58:49;;;;;;;4.22;3.60;;;;;;;17.55;36.83;103098.94;20997724;28;20157;-72
2024/01/11 09:08:52;;;;;;;3.90;3.45;;;;;;;17.65;37.27;103088.53;21017584;28;20052;-71
2024/01/11 09:18:54;;;;;;;3.75;3.30;;;;;;;17.82;37.32;103087.63;20987657;28;20412;-72
2024/01/11 09:28:56;;;;;;;3.58;3.20;;;;;;;17.91;37.28;103088.97;20995560;28;20052;-72
2024/01/11 09:38:58;;;;;;;5.18;3.67;;;;;;;17.97;37.55;103104.78;20998014;28;20048;-73
2024/01/11 09:49:00;;;;;;;3.33;3.03;;;;;;;18.06;37.68;103111.56;21022651;28;20055;-77
2024/01/11 09:59:06;;;;;;;3.35;3.03;;;;;;;18.13;37.29;103125.56;20994115;28;20051;-76
2024/01/11 10:09:08;;;;;;;3.33;3.03;;;;;;;18.12;37.37;103113.91;20975733;28;20048;-76
2024/01/11 10:19:13;;;;;;;3.33;3.00;;;;;;;18.14;37.28;103094.97;21005685;28;20048;-76
2024/01/11 10:29:17;;;;;;;3.33;2.92;;;;;;;18.25;37.33;103106.03;21005621;28;20044;-76
2024/01/11 10:39:25;;;;;;;3.17;2.88;;;;;;;18.28;37.28;103108.56;20987147;28;20090;-76
2024/01/11 10:49:27;;;;;;;3.60;2.63;;;;;;;18.32;37.21;103075.06;21026556;28;20054;-76
2024/01/11 10:59:31;;;;;;;3.47;3.03;;;;;;;18.35;37.22;103077.59;21030634;28;20149;-76
2024/01/11 11:09:34;;;;;;;3.30;2.92;;;;;;;18.25;37.26;103044.88;21007167;28;20528;-76
2024/01/11 11:19:36;;;;;;;2.40;2.20;;;;;;;18.39;37.23;103076.44;21032087;28;20040;-76
2024/01/11 11:29:38;;;;;;;3.20;2.80;;;;;;;18.39;37.43;103059.41;21027641;28;20062;-76
2024/01/11 11:39:41;;;;;;;2.92;2.33;;;;;;;18.41;36.98;103066.44;20992748;28;20056;-76
2024/01/11 11:50:07;;;;;;;2.67;2.40;;;;;;;18.44;37.47;103037.56;21018172;28;20400;-76
2024/01/11 12:00:11;;;;;;;3.38;2.67;;;;;;;18.44;37.43;103033.06;20988009;28;20044;-75
2024/01/11 12:10:13;;;;;;;2.92;2.65;;;;;;;18.46;37.61;103019.47;21004652;28;20496;-76
2024/01/11 12:20:16;;;;;;;2.53;2.28;;;;;;;18.47;37.55;103029.28;20998215;28;20047;-75
2024/01/11 12:30:18;;;;;;;3.15;2.45;;;;;;;18.43;37.73;103006.16;21023373;28;20051;-75
2024/01/11 12:40:20;;;;;;;3.20;2.60;;;;;;;18.40;37.75;102985.66;20983625;28;20055;-75
2024/01/11 12:50:32;;;;;;;3.95;3.42;;;;;;;18.43;37.83;102971.09;21027614;28;20048;-75
2024/01/11 13:00:34;;;;;;;3.08;2.60;;;;;;;18.48;37.79;102963.59;20998525;28;20164;-76
2024/01/11 13:10:36;;;;;;;3.10;2.38;;;;;;;18.51;37.94;102955.34;21009355;28;20048;-76
2024/01/11 13:20:38;;;;;;;3.40;2.80;;;;;;;18.48;38.13;102947.41;21028403;28;20055;-76
2024/01/11 13:30:41;;;;;;;2.60;2.25;;;;;;;18.44;38.12;102937.78;21004156;28;20048;-76
2024/01/11 13:40:43;;;;;;;4.72;2.63;;;;;;;18.45;38.31;102953.00;20988264;28;20075;-73
2024/01/11 13:50:45;;;;;;;4.18;2.95;;;;;;;18.41;38.63;102919.97;20985466;28;20074;-75
2024/01/11 14:00:47;;;;;;;3.42;2.65;;;;;;;18.39;38.68;102921.88;21004892;28;20044;-75
2024/01/11 14:10:49;;;;;;;3.42;2.30;;;;;;;18.38;38.69;102947.13;20943124;28;20425;-75
2024/01/11 14:20:52;;;;;;;3.83;2.63;;;;;;;18.40;38.62;102946.06;20957260;28;20389;-75
2024/01/11 14:30:54;;;;;;;3.85;2.70;;;;;;;18.41;38.88;102937.00;20969297;28;20116;-75
2024/01/11 14:40:56;;;;;;;3.00;2.70;;;;;;;18.40;38.89;102935.25;20965088;28;20044;-75
2024/01/11 14:50:58;;;;;;;2.55;2.35;;;;;;;18.36;38.92;102917.53;20938521;28;20492;-75
2024/01/11 15:01:00;;;;;;;3.65;2.50;;;;;;;18.35;38.90;102905.00;20947390;28;20052;-75
2024/01/11 15:11:03;;;;;;;3.70;3.15;;;;;;;18.35;39.20;102898.75;20949612;28;20049;-67
2024/01/11 15:21:06;;;;;;;3.30;2.53;;;;;;;18.47;39.42;102913.31;20954398;28;20044;-68
2024/01/11 15:31:07;;;;;;;4.35;2.85;;;;;;;18.30;39.52;102936.75;21023888;28;20051;-68
2024/01/11 15:41:09;;;;;;;3.70;3.00;;;;;;;18.13;39.64;102924.25;21027151;28;20036;-68
2024/01/11 15:51:11;;;;;;;5.10;3.10;;;;;;;17.94;39.97;102932.50;21026696;28;20056;-68
2024/01/11 16:01:13;;;;;;;4.28;3.22;;;;;;;17.80;40.15;102926.06;21008829;28;20056;-67
2024/01/11 16:11:15;;;;;;;3.58;2.92;;;;;;;17.71;40.38;102942.75;21024337;28;20499;-68
2024/01/11 16:21:17;;;;;;;4.30;3.20;;;;;;;17.58;40.49;102952.44;21007458;28;20567;-68
2024/01/11 16:31:19;;;;;;;4.57;3.30;;;;;;;17.47;40.62;102951.22;21023118;28;20484;-68
2024/01/11 16:41:21;;;;;;;3.88;3.03;;;;;;;17.39;40.79;102966.91;21005532;28;20048;-68
2024/01/11 16:51:23;;;;;;;3.63;3.13;;;;;;;17.34;40.89;102960.91;21021908;28;20052;-68
2024/01/11 17:01:25;;;;;;;3.60;2.60;;;;;;;17.31;41.01;102951.16;21004384;28;20047;-68
2024/01/11 17:11:27;;;;;;;4.68;3.15;;;;;;;17.26;41.08;102958.63;21020736;28;20047;-68
2024/01/11 17:21:32;;;;;;;3.53;3.22;;;;;;;17.18;41.13;102950.09;21020637;28;20066;-68
2024/01/11 17:31:36;;;;;;;3.63;3.07;;;;;;;17.18;41.59;102956.31;21038013;28;20412;-68
2024/01/11 17:41:40;;;;;;;3.45;2.90;;;;;;;17.16;41.45;102963.63;21018810;28;20048;-68
2024/01/11 17:51:42;;;;;;;3.27;2.97;;;;;;;17.11;41.29;102946.84;21036601;28;20044;-67
2024/01/11 18:01:44;;;;;;;4.20;2.72;;;;;;;17.08;41.55;102944.31;21035056;28;20051;-68
2024/01/11 18:11:48;;;;;;;4.15;3.05;;;;;;;17.08;41.47;102958.66;21034296;28;20056;-68
2024/01/11 18:21:50;;;;;;;3.50;3.17;;;;;;;17.05;41.78;102958.81;21034012;28;20040;-68
2024/01/11 18:31:52;;;;;;;5.25;3.40;;;;;;;17.02;41.54;102952.72;21032697;28;20392;-70
2024/01/11 18:41:57;;;;;;;4.95;3.88;;;;;;;16.99;41.70;102960.94;21032473;28;20044;-69
2024/01/11 18:51:59;;;;;;;4.75;3.65;;;;;;;16.98;41.66;102964.59;21015617;28;20048;-69
2024/01/11 19:02:01;;;;;;;4.63;3.33;;;;;;;16.96;41.76;102981.66;21029997;28;20056;-70
2024/01/11 19:12:03;;;;;;;4.88;3.85;;;;;;;16.95;41.82;102990.69;21029934;28;20055;-70
2024/01/11 19:22:05;;;;;;;4.00;3.58;;;;;;;16.96;41.72;102992.41;21047102;28;20102;-67
2024/01/11 19:32:07;;;;;;;4.18;3.35;;;;;;;16.95;41.72;103001.44;21011862;28;20048;-68
2024/01/11 19:42:09;;;;;;;4.63;3.60;;;;;;;16.95;41.72;103003.25;21027668;28;20044;-68
2024/01/11 19:52:11;;;;;;;4.38;3.50;;;;;;;16.95;41.79;103014.91;21009927;28;20108;-68
2024/01/11 20:02:13;;;;;;;5.32;3.88;;;;;;;16.93;41.76;103015.91;21024252;28;20050;-68
2024/01/11 20:12:15;;;;;;;4.00;3.60;;;;;;;16.82;41.81;103001.19;21025304;28;20056;-68
2024/01/11 20:22:18;;;;;;;5.40;3.78;;;;;;;16.91;41.72;103024.06;21041751;28;20071;-68
2024/01/11 20:32:20;;;;;;;4.65;3.90;;;;;;;16.92;41.71;103035.69;21023111;28;20043;-67
2024/01/11 20:42:22;;;;;;;4.15;3.63;;;;;;;16.88;41.87;103048.44;21040661;28;20411;-68
2024/01/11 20:52:25;;;;;;;4.25;3.83;;;;;;;16.87;41.72;103044.00;21022022;28;20051;-68
2024/01/11 21:02:27;;;;;;;3.80;3.38;;;;;;;16.89;41.80;103058.25;21005106;28;20059;-67
2024/01/11 21:12:29;;;;;;;5.85;3.80;;;;;;;16.88;41.90;103051.13;21020025;28;20052;-68
2024/01/11 21:22:31;;;;;;;4.95;4.03;;;;;;;16.86;41.77;103047.66;21004191;28;20047;-68
2024/01/11 21:32:33;;;;;;;5.55;4.15;;;;;;;16.83;41.86;103045.13;21020013;28;20047;-68
2024/01/11 21:42:35;;;;;;;4.70;3.83;;;;;;;16.82;41.96;103054.13;21019110;28;20047;-68
2024/01/11 21:52:37;;;;;;;4.75;3.53;;;;;;;16.82;41.92;103062.22;21002689;28;20053;-68
2024/01/11 22:02:39;;;;;;;4.63;3.90;;;;;;;16.85;41.99;103053.09;21018685;28;20075;-68
2024/01/11 22:12:41;;;;;;;3.95;3.47;;;;;;;16.82;41.81;103052.31;21002056;28;20047;-68
2024/01/11 22:22:43;;;;;;;4.30;3.90;;;;;;;16.78;41.89;103039.97;21007661;28;20048;-68
2024/01/11 22:32:46;;;;;;;4.28;3.50;;;;;;;16.60;41.89;103020.22;21032571;28;20055;-68
2024/01/11 22:42:47;;;;;;;4.75;3.63;;;;;;;16.75;41.89;103060.75;21048849;28;20145;-68
2024/01/11 22:52:49;;;;;;;5.15;3.55;;;;;;;16.71;42.03;103068.09;21007862;28;20145;-70
2024/01/11 23:02:52;;;;;;;4.95;3.60;;;;;;;16.74;41.82;103061.69;21035293;28;20056;-70
2024/01/11 23:12:53;;;;;;;3.55;3.20;;;;;;;16.72;41.80;103060.91;21010665;28;20059;-70
2024/01/11 23:22:55;;;;;;;3.85;3.40;;;;;;;16.70;41.96;103068.16;20995094;28;20511;-70
2024/01/11 23:32:58;;;;;;;3.85;3.33;;;;;;;16.65;41.96;103063.88;21019091;28;20048;-70
2024/01/11 23:43:00;;;;;;;3.92;3.05;;;;;;;16.63;41.87;103068.47;21008344;28;20074;-69
2024/01/11 23:53:01;;;;;;;4.18;3.35;;;;;;;16.61;41.77;103062.31;21001785;28;20048;-70
